sensor_id;sensor_type;location;lat;lon;timestamp;P1;durP1;ratioP1;P2;durP2;ratioP2
54953;SDS011;40855;51.072;5.402;2023-02-28T00:00:17;12.43;;;4.28;;
54953;SDS011;40855;51.072;5.402;2023-02-28T00:02:43;9.10;;;4.70;;
54953;SDS011;40855;51.072;5.402;2023-02-28T00:05:10;7.03;;;4.65;;
54953;SDS011;40855;51.072;5.402;2023-02-28T00:07:38;11.38;;;5.28;;
54953;SDS011;40855;51.072;5.402;2023-02-28T00:10:04;10.95;;;4.95;;
54953;SDS011;40855;51.072;5.402;2023-02-28T00:12:32;11.05;;;4.70;;
54953;SDS011;40855;51.072;5.402;2023-02-28T00:15:02;8.32;;;5.18;;
54953;SDS011;40855;51.072;5.402;2023-02-28T00:17:31;8.55;;;5.35;;
54953;SDS011;40855;51.072;5.402;2023-02-28T00:19:57;9.57;;;4.95;;
54953;SDS011;40855;51.072;5.402;2023-02-28T00:22:29;13.75;;;5.20;;
54953;SDS011;40855;51.072;5.402;2023-02-28T00:24:55;8.70;;;4.55;;
54953;SDS011;40855;51.072;5.402;2023-02-28T00:27:21;8.25;;;4.47;;
54953;SDS011;40855;51.072;5.402;2023-02-28T00:29:47;11.60;;;4.93;;
54953;SDS011;40855;51.072;5.402;2023-02-28T00:32:13;8.90;;;4.93;;
54953;SDS011;40855;51.072;5.402;2023-02-28T00:34:38;10.23;;;5.10;;
54953;SDS011;40855;51.072;5.402;2023-02-28T00:37:05;6.45;;;4.60;;
54953;SDS011;40855;51.072;5.402;2023-02-28T00:39:36;7.07;;;4.90;;
54953;SDS011;40855;51.072;5.402;2023-02-28T00:42:03;7.50;;;4.50;;
54953;SDS011;40855;51.072;5.402;2023-02-28T00:44:29;11.68;;;4.90;;
54953;SDS011;40855;51.072;5.402;2023-02-28T00:46:55;6.65;;;4.53;;
54953;SDS011;40855;51.072;5.402;2023-02-28T00:49:22;10.98;;;4.63;;
54953;SDS011;40855;51.072;5.402;2023-02-28T00:51:48;10.20;;;4.55;;
54953;SDS011;40855;51.072;5.402;2023-02-28T00:54:14;6.03;;;4.30;;
54953;SDS011;40855;51.072;5.402;2023-02-28T00:56:40;8.13;;;4.28;;
54953;SDS011;40855;51.072;5.402;2023-02-28T00:59:05;7.15;;;3.75;;
54953;SDS011;40855;51.072;5.402;2023-02-28T01:01:31;10.27;;;4.55;;
54953;SDS011;40855;51.072;5.402;2023-02-28T01:03:57;9.70;;;4.82;;
54953;SDS011;40855;51.072;5.402;2023-02-28T01:06:23;8.18;;;4.57;;
54953;SDS011;40855;51.072;5.402;2023-02-28T01:08:49;7.25;;;4.60;;
54953;SDS011;40855;51.072;5.402;2023-02-28T01:11:18;8.48;;;4.85;;
54953;SDS011;40855;51.072;5.402;2023-02-28T01:13:45;7.90;;;4.40;;
54953;SDS011;40855;51.072;5.402;2023-02-28T01:16:11;7.32;;;4.32;;
54953;SDS011;40855;51.072;5.402;2023-02-28T01:18:38;8.48;;;4.80;;
54953;SDS011;40855;51.072;5.402;2023-02-28T01:21:07;6.03;;;4.63;;
54953;SDS011;40855;51.072;5.402;2023-02-28T01:23:35;10.32;;;4.63;;
54953;SDS011;40855;51.072;5.402;2023-02-28T01:26:08;6.28;;;4.55;;
54953;SDS011;40855;51.072;5.402;2023-02-28T01:28:38;10.43;;;4.80;;
54953;SDS011;40855;51.072;5.402;2023-02-28T01:31:04;10.40;;;4.85;;
54953;SDS011;40855;51.072;5.402;2023-02-28T01:33:30;12.43;;;4.95;;
54953;SDS011;40855;51.072;5.402;2023-02-28T01:35:59;9.10;;;4.47;;
54953;SDS011;40855;51.072;5.402;2023-02-28T01:38:26;7.10;;;4.53;;
54953;SDS011;40855;51.072;5.402;2023-02-28T01:40:52;9.50;;;4.88;;
54953;SDS011;40855;51.072;5.402;2023-02-28T01:43:20;10.48;;;5.20;;
54953;SDS011;40855;51.072;5.402;2023-02-28T01:45:46;7.93;;;4.97;;
54953;SDS011;40855;51.072;5.402;2023-02-28T01:48:11;7.80;;;4.88;;
54953;SDS011;40855;51.072;5.402;2023-02-28T01:50:39;8.52;;;5.40;;
54953;SDS011;40855;51.072;5.402;2023-02-28T01:53:09;7.13;;;4.78;;
54953;SDS011;40855;51.072;5.402;2023-02-28T01:55:38;10.60;;;5.63;;
54953;SDS011;40855;51.072;5.402;2023-02-28T01:58:06;8.38;;;5.10;;
54953;SDS011;40855;51.072;5.402;2023-02-28T02:00:34;8.38;;;5.60;;
54953;SDS011;40855;51.072;5.402;2023-02-28T02:03:09;8.27;;;5.35;;
54953;SDS011;40855;51.072;5.402;2023-02-28T02:05:38;10.38;;;5.10;;
54953;SDS011;40855;51.072;5.402;2023-02-28T02:08:16;8.90;;;5.50;;
54953;SDS011;40855;51.072;5.402;2023-02-28T02:18:30;8.55;;;5.38;;
54953;SDS011;40855;51.072;5.402;2023-02-28T02:38:18;8.88;;;5.65;;
54953;SDS011;40855;51.072;5.402;2023-02-28T02:40:30;8.68;;;5.80;;
54953;SDS011;40855;51.072;5.402;2023-02-28T02:43:11;11.57;;;5.60;;
54953;SDS011;40855;51.072;5.402;2023-02-28T02:45:49;9.73;;;6.07;;
54953;SDS011;40855;51.072;5.402;2023-02-28T02:48:24;11.43;;;5.45;;
54953;SDS011;40855;51.072;5.402;2023-02-28T02:50:55;10.75;;;5.65;;
54953;SDS011;40855;51.072;5.402;2023-02-28T02:53:34;15.52;;;5.45;;
54953;SDS011;40855;51.072;5.402;2023-02-28T02:56:03;7.72;;;4.78;;
54953;SDS011;40855;51.072;5.402;2023-02-28T02:58:32;8.48;;;5.43;;
54953;SDS011;40855;51.072;5.402;2023-02-28T03:01:07;8.98;;;5.97;;
54953;SDS011;40855;51.072;5.402;2023-02-28T03:03:35;11.30;;;5.40;;
54953;SDS011;40855;51.072;5.402;2023-02-28T03:06:01;8.85;;;6.20;;
54953;SDS011;40855;51.072;5.402;2023-02-28T03:08:29;13.57;;;6.47;;
54953;SDS011;40855;51.072;5.402;2023-02-28T03:11:02;9.15;;;5.88;;
54953;SDS011;40855;51.072;5.402;2023-02-28T03:13:42;8.55;;;5.85;;
54953;SDS011;40855;51.072;5.402;2023-02-28T03:24:56;10.63;;;5.80;;
54953;SDS011;40855;51.072;5.402;2023-02-28T03:27:54;12.13;;;6.20;;
54953;SDS011;40855;51.072;5.402;2023-02-28T03:30:58;13.85;;;6.95;;
54953;SDS011;40855;51.072;5.402;2023-02-28T03:36:34;10.70;;;6.60;;
54953;SDS011;40855;51.072;5.402;2023-02-28T03:39:09;13.35;;;7.20;;
54953;SDS011;40855;51.072;5.402;2023-02-28T03:42:05;10.98;;;6.20;;
54953;SDS011;40855;51.072;5.402;2023-02-28T03:44:40;9.43;;;6.07;;
54953;SDS011;40855;51.072;5.402;2023-02-28T03:49:43;11.15;;;6.63;;
54953;SDS011;40855;51.072;5.402;2023-02-28T03:52:17;11.55;;;7.28;;
54953;SDS011;40855;51.072;5.402;2023-02-28T03:54:48;10.40;;;6.97;;
54953;SDS011;40855;51.072;5.402;2023-02-28T04:00:19;9.30;;;6.88;;
54953;SDS011;40855;51.072;5.402;2023-02-28T04:02:57;13.82;;;7.70;;
54953;SDS011;40855;51.072;5.402;2023-02-28T04:05:23;11.50;;;7.00;;
54953;SDS011;40855;51.072;5.402;2023-02-28T04:07:49;11.80;;;7.78;;
54953;SDS011;40855;51.072;5.402;2023-02-28T04:10:15;15.55;;;7.03;;
54953;SDS011;40855;51.072;5.402;2023-02-28T04:12:42;11.95;;;6.53;;
54953;SDS011;40855;51.072;5.402;2023-02-28T04:15:07;14.88;;;7.78;;
54953;SDS011;40855;51.072;5.402;2023-02-28T04:17:33;10.95;;;6.53;;
54953;SDS011;40855;51.072;5.402;2023-02-28T04:19:59;11.63;;;6.38;;
54953;SDS011;40855;51.072;5.402;2023-02-28T04:22:25;12.70;;;6.72;;
54953;SDS011;40855;51.072;5.402;2023-02-28T04:24:53;12.02;;;6.88;;
54953;SDS011;40855;51.072;5.402;2023-02-28T04:27:20;14.98;;;7.32;;
54953;SDS011;40855;51.072;5.402;2023-02-28T04:29:46;12.20;;;6.85;;
54953;SDS011;40855;51.072;5.402;2023-02-28T04:32:11;15.52;;;7.30;;
54953;SDS011;40855;51.072;5.402;2023-02-28T04:34:37;14.55;;;6.80;;
54953;SDS011;40855;51.072;5.402;2023-02-28T04:37:03;12.88;;;6.95;;
54953;SDS011;40855;51.072;5.402;2023-02-28T04:39:29;17.55;;;6.97;;
54953;SDS011;40855;51.072;5.402;2023-02-28T04:41:55;8.93;;;6.43;;
54953;SDS011;40855;51.072;5.402;2023-02-28T04:44:21;14.40;;;7.57;;
54953;SDS011;40855;51.072;5.402;2023-02-28T04:46:48;11.18;;;6.40;;
54953;SDS011;40855;51.072;5.402;2023-02-28T04:49:15;12.25;;;6.78;;
54953;SDS011;40855;51.072;5.402;2023-02-28T04:51:41;9.88;;;6.63;;
54953;SDS011;40855;51.072;5.402;2023-02-28T04:54:07;9.90;;;6.90;;
54953;SDS011;40855;51.072;5.402;2023-02-28T04:56:33;8.52;;;6.57;;
54953;SDS011;40855;51.072;5.402;2023-02-28T04:58:59;12.48;;;6.63;;
54953;SDS011;40855;51.072;5.402;2023-02-28T05:01:26;13.27;;;7.20;;
54953;SDS011;40855;51.072;5.402;2023-02-28T05:03:52;18.58;;;6.57;;
54953;SDS011;40855;51.072;5.402;2023-02-28T05:06:20;9.45;;;6.10;;
54953;SDS011;40855;51.072;5.402;2023-02-28T05:08:48;10.48;;;6.53;;
54953;SDS011;40855;51.072;5.402;2023-02-28T05:14:10;10.77;;;7.17;;
54953;SDS011;40855;51.072;5.402;2023-02-28T05:16:38;12.00;;;6.65;;
54953;SDS011;40855;51.072;5.402;2023-02-28T05:19:04;10.15;;;6.38;;
54953;SDS011;40855;51.072;5.402;2023-02-28T05:24:03;13.48;;;6.75;;
54953;SDS011;40855;51.072;5.402;2023-02-28T05:26:33;12.13;;;6.80;;
54953;SDS011;40855;51.072;5.402;2023-02-28T05:29:03;10.82;;;6.75;;
54953;SDS011;40855;51.072;5.402;2023-02-28T05:31:30;12.10;;;6.00;;
54953;SDS011;40855;51.072;5.402;2023-02-28T05:33:56;10.75;;;6.85;;
54953;SDS011;40855;51.072;5.402;2023-02-28T05:36:21;13.75;;;6.63;;
54953;SDS011;40855;51.072;5.402;2023-02-28T05:38:48;13.40;;;6.68;;
54953;SDS011;40855;51.072;5.402;2023-02-28T05:41:14;11.50;;;6.63;;
54953;SDS011;40855;51.072;5.402;2023-02-28T05:43:40;11.25;;;6.95;;
54953;SDS011;40855;51.072;5.402;2023-02-28T05:46:06;11.13;;;6.38;;
54953;SDS011;40855;51.072;5.402;2023-02-28T05:48:34;12.73;;;6.65;;
54953;SDS011;40855;51.072;5.402;2023-02-28T05:51:01;9.15;;;6.65;;
54953;SDS011;40855;51.072;5.402;2023-02-28T05:53:28;12.27;;;7.38;;
54953;SDS011;40855;51.072;5.402;2023-02-28T05:55:54;11.65;;;7.28;;
54953;SDS011;40855;51.072;5.402;2023-02-28T05:58:20;12.13;;;7.05;;
54953;SDS011;40855;51.072;5.402;2023-02-28T06:00:46;12.48;;;6.95;;
54953;SDS011;40855;51.072;5.402;2023-02-28T06:03:12;15.27;;;7.70;;
54953;SDS011;40855;51.072;5.402;2023-02-28T06:05:38;14.40;;;7.43;;
54953;SDS011;40855;51.072;5.402;2023-02-28T06:08:04;12.60;;;7.30;;
54953;SDS011;40855;51.072;5.402;2023-02-28T06:10:32;13.88;;;7.45;;
54953;SDS011;40855;51.072;5.402;2023-02-28T06:13:01;11.55;;;7.57;;
54953;SDS011;40855;51.072;5.402;2023-02-28T06:15:30;12.70;;;7.20;;
54953;SDS011;40855;51.072;5.402;2023-02-28T06:17:56;14.70;;;8.13;;
54953;SDS011;40855;51.072;5.402;2023-02-28T06:20:22;23.25;;;6.82;;
54953;SDS011;40855;51.072;5.402;2023-02-28T06:22:49;15.32;;;7.47;;
54953;SDS011;40855;51.072;5.402;2023-02-28T06:25:19;14.80;;;7.68;;
54953;SDS011;40855;51.072;5.402;2023-02-28T06:27:45;12.75;;;6.80;;
54953;SDS011;40855;51.072;5.402;2023-02-28T06:30:11;13.63;;;7.50;;
54953;SDS011;40855;51.072;5.402;2023-02-28T06:32:37;15.23;;;7.13;;
54953;SDS011;40855;51.072;5.402;2023-02-28T06:35:03;12.13;;;6.97;;
54953;SDS011;40855;51.072;5.402;2023-02-28T06:37:30;8.95;;;6.38;;
54953;SDS011;40855;51.072;5.402;2023-02-28T06:39:56;10.00;;;6.68;;
54953;SDS011;40855;51.072;5.402;2023-02-28T06:42:23;11.65;;;6.22;;
54953;SDS011;40855;51.072;5.402;2023-02-28T06:44:57;11.63;;;6.78;;
54953;SDS011;40855;51.072;5.402;2023-02-28T06:47:23;16.45;;;7.80;;
54953;SDS011;40855;51.072;5.402;2023-02-28T06:49:49;9.55;;;6.72;;
54953;SDS011;40855;51.072;5.402;2023-02-28T06:52:15;11.85;;;7.55;;
54953;SDS011;40855;51.072;5.402;2023-02-28T06:54:41;12.65;;;6.90;;
54953;SDS011;40855;51.072;5.402;2023-02-28T06:57:07;16.50;;;6.82;;
54953;SDS011;40855;51.072;5.402;2023-02-28T06:59:33;11.93;;;6.32;;
54953;SDS011;40855;51.072;5.402;2023-02-28T07:02:00;9.48;;;6.30;;
54953;SDS011;40855;51.072;5.402;2023-02-28T07:04:27;11.63;;;6.47;;
54953;SDS011;40855;51.072;5.402;2023-02-28T07:06:53;13.55;;;6.82;;
54953;SDS011;40855;51.072;5.402;2023-02-28T07:09:21;10.88;;;6.10;;
54953;SDS011;40855;51.072;5.402;2023-02-28T07:11:46;11.18;;;6.70;;
54953;SDS011;40855;51.072;5.402;2023-02-28T07:14:12;10.88;;;6.60;;
54953;SDS011;40855;51.072;5.402;2023-02-28T07:16:38;13.65;;;6.95;;
54953;SDS011;40855;51.072;5.402;2023-02-28T07:19:03;8.70;;;6.32;;
54953;SDS011;40855;51.072;5.402;2023-02-28T07:21:29;9.07;;;6.22;;
54953;SDS011;40855;51.072;5.402;2023-02-28T07:23:55;8.50;;;5.80;;
54953;SDS011;40855;51.072;5.402;2023-02-28T07:26:21;10.32;;;6.30;;
54953;SDS011;40855;51.072;5.402;2023-02-28T07:28:47;10.60;;;5.78;;
54953;SDS011;40855;51.072;5.402;2023-02-28T07:31:13;12.00;;;5.55;;
54953;SDS011;40855;51.072;5.402;2023-02-28T07:33:40;9.93;;;5.20;;
54953;SDS011;40855;51.072;5.402;2023-02-28T07:36:07;8.98;;;5.80;;
54953;SDS011;40855;51.072;5.402;2023-02-28T07:38:35;9.80;;;6.10;;
54953;SDS011;40855;51.072;5.402;2023-02-28T07:41:02;10.07;;;6.30;;
54953;SDS011;40855;51.072;5.402;2023-02-28T07:43:31;8.77;;;5.70;;
54953;SDS011;40855;51.072;5.402;2023-02-28T07:46:05;11.18;;;6.38;;
54953;SDS011;40855;51.072;5.402;2023-02-28T07:48:32;13.05;;;6.47;;
54953;SDS011;40855;51.072;5.402;2023-02-28T07:50:58;11.10;;;6.55;;
54953;SDS011;40855;51.072;5.402;2023-02-28T07:53:25;10.57;;;6.07;;
54953;SDS011;40855;51.072;5.402;2023-02-28T07:55:54;10.48;;;6.25;;
54953;SDS011;40855;51.072;5.402;2023-02-28T07:58:24;10.18;;;6.15;;
54953;SDS011;40855;51.072;5.402;2023-02-28T08:00:51;12.15;;;6.13;;
54953;SDS011;40855;51.072;5.402;2023-02-28T08:03:18;11.13;;;6.20;;
54953;SDS011;40855;51.072;5.402;2023-02-28T08:05:45;13.85;;;6.80;;
54953;SDS011;40855;51.072;5.402;2023-02-28T08:08:12;9.40;;;6.10;;
54953;SDS011;40855;51.072;5.402;2023-02-28T08:10:38;11.15;;;5.90;;
54953;SDS011;40855;51.072;5.402;2023-02-28T08:13:04;12.55;;;6.18;;
54953;SDS011;40855;51.072;5.402;2023-02-28T08:15:30;10.70;;;5.93;;
54953;SDS011;40855;51.072;5.402;2023-02-28T08:17:56;8.80;;;5.32;;
54953;SDS011;40855;51.072;5.402;2023-02-28T08:20:22;13.48;;;5.75;;
54953;SDS011;40855;51.072;5.402;2023-02-28T08:22:48;15.77;;;5.55;;
54953;SDS011;40855;51.072;5.402;2023-02-28T08:25:14;7.85;;;5.32;;
54953;SDS011;40855;51.072;5.402;2023-02-28T08:27:40;12.27;;;5.68;;
54953;SDS011;40855;51.072;5.402;2023-02-28T08:30:06;8.88;;;5.25;;
54953;SDS011;40855;51.072;5.402;2023-02-28T08:32:32;12.02;;;5.13;;
54953;SDS011;40855;51.072;5.402;2023-02-28T08:34:58;8.57;;;4.43;;
54953;SDS011;40855;51.072;5.402;2023-02-28T08:37:25;6.70;;;4.32;;
54953;SDS011;40855;51.072;5.402;2023-02-28T08:39:51;6.75;;;4.20;;
54953;SDS011;40855;51.072;5.402;2023-02-28T08:42:16;5.53;;;4.45;;
54953;SDS011;40855;51.072;5.402;2023-02-28T08:44:42;8.65;;;3.80;;
54953;SDS011;40855;51.072;5.402;2023-02-28T08:47:08;10.25;;;4.32;;
54953;SDS011;40855;51.072;5.402;2023-02-28T08:49:33;6.53;;;3.92;;
54953;SDS011;40855;51.072;5.402;2023-02-28T08:51:59;6.45;;;3.92;;
54953;SDS011;40855;51.072;5.402;2023-02-28T08:54:25;6.03;;;4.25;;
54953;SDS011;40855;51.072;5.402;2023-02-28T08:56:51;5.38;;;3.80;;
54953;SDS011;40855;51.072;5.402;2023-02-28T08:59:17;5.00;;;3.90;;
54953;SDS011;40855;51.072;5.402;2023-02-28T09:01:42;10.95;;;4.80;;
54953;SDS011;40855;51.072;5.402;2023-02-28T09:04:08;10.65;;;4.82;;
54953;SDS011;40855;51.072;5.402;2023-02-28T09:06:36;5.45;;;3.47;;
54953;SDS011;40855;51.072;5.402;2023-02-28T09:09:02;5.15;;;3.45;;
54953;SDS011;40855;51.072;5.402;2023-02-28T09:11:31;3.83;;;3.35;;
54953;SDS011;40855;51.072;5.402;2023-02-28T09:13:57;6.07;;;2.92;;
54953;SDS011;40855;51.072;5.402;2023-02-28T09:16:25;6.05;;;3.85;;
54953;SDS011;40855;51.072;5.402;2023-02-28T09:18:51;4.22;;;3.10;;
54953;SDS011;40855;51.072;5.402;2023-02-28T09:21:18;9.35;;;4.15;;
54953;SDS011;40855;51.072;5.402;2023-02-28T09:23:45;3.28;;;2.88;;
54953;SDS011;40855;51.072;5.402;2023-02-28T09:26:13;3.30;;;2.47;;
54953;SDS011;40855;51.072;5.402;2023-02-28T09:28:47;3.67;;;2.72;;
54953;SDS011;40855;51.072;5.402;2023-02-28T09:31:14;5.05;;;3.75;;
54953;SDS011;40855;51.072;5.402;2023-02-28T09:33:41;5.78;;;3.08;;
54953;SDS011;40855;51.072;5.402;2023-02-28T09:36:08;4.70;;;3.05;;
54953;SDS011;40855;51.072;5.402;2023-02-28T09:38:34;4.70;;;2.55;;
54953;SDS011;40855;51.072;5.402;2023-02-28T09:41:02;4.15;;;3.47;;
54953;SDS011;40855;51.072;5.402;2023-02-28T09:43:35;4.32;;;3.00;;
54953;SDS011;40855;51.072;5.402;2023-02-28T09:46:08;4.28;;;2.92;;
54953;SDS011;40855;51.072;5.402;2023-02-28T09:48:57;4.03;;;2.92;;
54953;SDS011;40855;51.072;5.402;2023-02-28T09:54:18;3.40;;;2.30;;
54953;SDS011;40855;51.072;5.402;2023-02-28T09:56:51;3.65;;;2.53;;
54953;SDS011;40855;51.072;5.402;2023-02-28T10:02:36;1.90;;;1.60;;
54953;SDS011;40855;51.072;5.402;2023-02-28T10:05:29;5.03;;;2.05;;
54953;SDS011;40855;51.072;5.402;2023-02-28T10:08:16;2.40;;;2.03;;
54953;SDS011;40855;51.072;5.402;2023-02-28T10:11:11;3.33;;;2.10;;
54953;SDS011;40855;51.072;5.402;2023-02-28T10:16:13;1.98;;;1.88;;
54953;SDS011;40855;51.072;5.402;2023-02-28T10:29:45;3.83;;;2.05;;
54953;SDS011;40855;51.072;5.402;2023-02-28T10:32:14;2.60;;;1.77;;
54953;SDS011;40855;51.072;5.402;2023-02-28T10:35:31;2.42;;;1.80;;
54953;SDS011;40855;51.072;5.402;2023-02-28T10:37:31;1.95;;;1.77;;
54953;SDS011;40855;51.072;5.402;2023-02-28T10:39:57;4.30;;;2.33;;
54953;SDS011;40855;51.072;5.402;2023-02-28T10:42:27;3.20;;;1.80;;
54953;SDS011;40855;51.072;5.402;2023-02-28T10:45:05;2.70;;;1.75;;
54953;SDS011;40855;51.072;5.402;2023-02-28T10:47:41;2.25;;;1.70;;
54953;SDS011;40855;51.072;5.402;2023-02-28T10:58:30;4.32;;;2.03;;
54953;SDS011;40855;51.072;5.402;2023-02-28T11:00:57;1.52;;;1.42;;
54953;SDS011;40855;51.072;5.402;2023-02-28T11:03:34;1.75;;;1.65;;
54953;SDS011;40855;51.072;5.402;2023-02-28T11:06:16;1.60;;;1.50;;
54953;SDS011;40855;51.072;5.402;2023-02-28T11:08:52;3.05;;;1.77;;
54953;SDS011;40855;51.072;5.402;2023-02-28T11:11:21;1.88;;;1.60;;
54953;SDS011;40855;51.072;5.402;2023-02-28T11:13:53;2.17;;;1.67;;
54953;SDS011;40855;51.072;5.402;2023-02-28T11:16:22;2.72;;;1.77;;
54953;SDS011;40855;51.072;5.402;2023-02-28T11:18:58;5.35;;;1.88;;
54953;SDS011;40855;51.072;5.402;2023-02-28T11:21:31;6.57;;;1.95;;
54953;SDS011;40855;51.072;5.402;2023-02-28T11:24:15;2.38;;;1.95;;
54953;SDS011;40855;51.072;5.402;2023-02-28T11:26:51;1.50;;;1.40;;
54953;SDS011;40855;51.072;5.402;2023-02-28T11:29:25;2.28;;;2.08;;
54953;SDS011;40855;51.072;5.402;2023-02-28T11:32:12;3.58;;;1.80;;
54953;SDS011;40855;51.072;5.402;2023-02-28T11:34:42;2.20;;;1.98;;
54953;SDS011;40855;51.072;5.402;2023-02-28T11:37:13;4.80;;;2.10;;
54953;SDS011;40855;51.072;5.402;2023-02-28T11:39:42;2.92;;;2.03;;
54953;SDS011;40855;51.072;5.402;2023-02-28T11:53:01;3.22;;;1.67;;
54953;SDS011;40855;51.072;5.402;2023-02-28T11:56:02;4.68;;;1.90;;
54953;SDS011;40855;51.072;5.402;2023-02-28T12:01:21;2.05;;;1.95;;
54953;SDS011;40855;51.072;5.402;2023-02-28T12:09:43;3.67;;;1.95;;
54953;SDS011;40855;51.072;5.402;2023-02-28T12:28:56;4.18;;;2.15;;
54953;SDS011;40855;51.072;5.402;2023-02-28T12:31:36;2.97;;;2.22;;
54953;SDS011;40855;51.072;5.402;2023-02-28T12:34:10;2.63;;;2.20;;
54953;SDS011;40855;51.072;5.402;2023-02-28T12:36:41;3.65;;;2.70;;
54953;SDS011;40855;51.072;5.402;2023-02-28T12:39:16;2.58;;;2.38;;
54953;SDS011;40855;51.072;5.402;2023-02-28T12:44:51;4.28;;;2.28;;
54953;SDS011;40855;51.072;5.402;2023-02-28T12:47:20;4.38;;;2.38;;
54953;SDS011;40855;51.072;5.402;2023-02-28T12:49:50;15.05;;;2.65;;
54953;SDS011;40855;51.072;5.402;2023-02-28T12:52:46;4.47;;;2.30;;
54953;SDS011;40855;51.072;5.402;2023-02-28T12:55:45;3.67;;;2.25;;
54953;SDS011;40855;51.072;5.402;2023-02-28T12:58:25;2.22;;;2.03;;
54953;SDS011;40855;51.072;5.402;2023-02-28T13:09:35;2.05;;;1.80;;
54953;SDS011;40855;51.072;5.402;2023-02-28T13:12:04;6.15;;;2.33;;
54953;SDS011;40855;51.072;5.402;2023-02-28T13:14:38;3.45;;;2.83;;
54953;SDS011;40855;51.072;5.402;2023-02-28T13:22:35;4.25;;;2.40;;
54953;SDS011;40855;51.072;5.402;2023-02-28T13:27:54;3.65;;;2.88;;
54953;SDS011;40855;51.072;5.402;2023-02-28T13:38:57;2.75;;;2.35;;
54953;SDS011;40855;51.072;5.402;2023-02-28T13:44:02;6.40;;;2.55;;
54953;SDS011;40855;51.072;5.402;2023-02-28T13:51:54;5.10;;;2.35;;
54953;SDS011;40855;51.072;5.402;2023-02-28T13:54:43;3.00;;;2.55;;
54953;SDS011;40855;51.072;5.402;2023-02-28T13:57:23;5.65;;;3.72;;
54953;SDS011;40855;51.072;5.402;2023-02-28T14:05:20;2.83;;;2.63;;
54953;SDS011;40855;51.072;5.402;2023-02-28T14:07:52;3.28;;;2.33;;
54953;SDS011;40855;51.072;5.402;2023-02-28T14:18:26;7.05;;;2.33;;
54953;SDS011;40855;51.072;5.402;2023-02-28T14:20:58;4.60;;;2.50;;
54953;SDS011;40855;51.072;5.402;2023-02-28T14:34:29;1.98;;;1.80;;
54953;SDS011;40855;51.072;5.402;2023-02-28T14:37:16;6.00;;;2.40;;
54953;SDS011;40855;51.072;5.402;2023-02-28T14:39:50;5.63;;;2.13;;
54953;SDS011;40855;51.072;5.402;2023-02-28T14:42:30;3.22;;;1.90;;
54953;SDS011;40855;51.072;5.402;2023-02-28T14:45:01;4.25;;;1.88;;
54953;SDS011;40855;51.072;5.402;2023-02-28T14:47:28;4.10;;;2.30;;
54953;SDS011;40855;51.072;5.402;2023-02-28T14:49:58;2.03;;;1.90;;
54953;SDS011;40855;51.072;5.402;2023-02-28T14:52:26;3.20;;;2.72;;
54953;SDS011;40855;51.072;5.402;2023-02-28T14:54:55;3.53;;;1.77;;
54953;SDS011;40855;51.072;5.402;2023-02-28T14:57:28;4.10;;;2.30;;
54953;SDS011;40855;51.072;5.402;2023-02-28T15:00:00;3.33;;;2.33;;
54953;SDS011;40855;51.072;5.402;2023-02-28T15:02:38;2.35;;;2.15;;
54953;SDS011;40855;51.072;5.402;2023-02-28T15:07:42;6.07;;;2.15;;
54953;SDS011;40855;51.072;5.402;2023-02-28T15:10:19;4.88;;;2.33;;
54953;SDS011;40855;51.072;5.402;2023-02-28T15:16:01;2.50;;;2.30;;
54953;SDS011;40855;51.072;5.402;2023-02-28T15:18:31;2.92;;;2.50;;
54953;SDS011;40855;51.072;5.402;2023-02-28T15:21:02;2.63;;;2.28;;
54953;SDS011;40855;51.072;5.402;2023-02-28T15:23:34;3.97;;;2.28;;
54953;SDS011;40855;51.072;5.402;2023-02-28T15:26:01;5.93;;;2.88;;
54953;SDS011;40855;51.072;5.402;2023-02-28T15:28:27;6.57;;;2.67;;
54953;SDS011;40855;51.072;5.402;2023-02-28T15:30:58;7.25;;;2.90;;
54953;SDS011;40855;51.072;5.402;2023-02-28T15:33:30;7.65;;;3.13;;
54953;SDS011;40855;51.072;5.402;2023-02-28T15:38:52;11.25;;;4.80;;
54953;SDS011;40855;51.072;5.402;2023-02-28T15:41:27;3.13;;;2.60;;
54953;SDS011;40855;51.072;5.402;2023-02-28T15:44:14;3.38;;;2.33;;
54953;SDS011;40855;51.072;5.402;2023-02-28T15:46:53;2.58;;;2.25;;
54953;SDS011;40855;51.072;5.402;2023-02-28T15:49:49;3.90;;;2.40;;
54953;SDS011;40855;51.072;5.402;2023-02-28T15:52:24;3.53;;;2.20;;
54953;SDS011;40855;51.072;5.402;2023-02-28T15:55:07;2.05;;;1.95;;
54953;SDS011;40855;51.072;5.402;2023-02-28T15:57:33;3.70;;;2.40;;
54953;SDS011;40855;51.072;5.402;2023-02-28T16:00:00;6.22;;;2.75;;
54953;SDS011;40855;51.072;5.402;2023-02-28T16:02:34;4.45;;;2.22;;
54953;SDS011;40855;51.072;5.402;2023-02-28T16:07:27;3.80;;;2.50;;
54953;SDS011;40855;51.072;5.402;2023-02-28T16:09:53;3.88;;;2.45;;
54953;SDS011;40855;51.072;5.402;2023-02-28T16:12:20;2.28;;;2.08;;
54953;SDS011;40855;51.072;5.402;2023-02-28T16:14:49;2.63;;;2.40;;
54953;SDS011;40855;51.072;5.402;2023-02-28T16:17:21;2.25;;;2.15;;
54953;SDS011;40855;51.072;5.402;2023-02-28T16:19:49;5.30;;;3.00;;
54953;SDS011;40855;51.072;5.402;2023-02-28T16:22:15;6.30;;;2.08;;
54953;SDS011;40855;51.072;5.402;2023-02-28T16:24:41;5.50;;;2.80;;
54953;SDS011;40855;51.072;5.402;2023-02-28T16:27:09;5.85;;;2.72;;
54953;SDS011;40855;51.072;5.402;2023-02-28T16:32:07;3.00;;;2.70;;
54953;SDS011;40855;51.072;5.402;2023-02-28T16:34:36;2.60;;;2.40;;
54953;SDS011;40855;51.072;5.402;2023-02-28T16:37:03;3.67;;;3.10;;
54953;SDS011;40855;51.072;5.402;2023-02-28T16:39:30;4.65;;;3.08;;
54953;SDS011;40855;51.072;5.402;2023-02-28T16:41:55;3.92;;;2.65;;
54953;SDS011;40855;51.072;5.402;2023-02-28T16:44:34;4.30;;;2.67;;
54953;SDS011;40855;51.072;5.402;2023-02-28T16:47:01;5.18;;;2.83;;
54953;SDS011;40855;51.072;5.402;2023-02-28T16:49:28;4.63;;;2.65;;
54953;SDS011;40855;51.072;5.402;2023-02-28T16:51:54;3.03;;;2.78;;
54953;SDS011;40855;51.072;5.402;2023-02-28T16:54:20;6.65;;;2.83;;
54953;SDS011;40855;51.072;5.402;2023-02-28T16:56:46;4.15;;;2.25;;
54953;SDS011;40855;51.072;5.402;2023-02-28T16:59:13;4.47;;;2.72;;
54953;SDS011;40855;51.072;5.402;2023-02-28T17:01:43;3.42;;;2.45;;
54953;SDS011;40855;51.072;5.402;2023-02-28T17:04:09;3.70;;;2.97;;
54953;SDS011;40855;51.072;5.402;2023-02-28T17:06:36;5.03;;;3.40;;
54953;SDS011;40855;51.072;5.402;2023-02-28T17:09:02;8.85;;;3.63;;
54953;SDS011;40855;51.072;5.402;2023-02-28T17:11:29;11.63;;;5.63;;
54953;SDS011;40855;51.072;5.402;2023-02-28T17:13:54;3.20;;;2.90;;
54953;SDS011;40855;51.072;5.402;2023-02-28T17:16:27;23.58;;;8.57;;
54953;SDS011;40855;51.072;5.402;2023-02-28T17:18:57;86.80;;;22.92;;
54953;SDS011;40855;51.072;5.402;2023-02-28T17:21:31;82.50;;;20.50;;
54953;SDS011;40855;51.072;5.402;2023-02-28T17:23:58;196.77;;;45.33;;
54953;SDS011;40855;51.072;5.402;2023-02-28T17:26:24;191.07;;;50.03;;
54953;SDS011;40855;51.072;5.402;2023-02-28T17:28:50;108.82;;;36.08;;
54953;SDS011;40855;51.072;5.402;2023-02-28T17:31:17;118.78;;;33.95;;
54953;SDS011;40855;51.072;5.402;2023-02-28T17:33:43;82.97;;;25.55;;
54953;SDS011;40855;51.072;5.402;2023-02-28T17:36:30;34.95;;;12.35;;
54953;SDS011;40855;51.072;5.402;2023-02-28T17:38:55;9.32;;;5.53;;
54953;SDS011;40855;51.072;5.402;2023-02-28T17:41:21;7.38;;;4.90;;
54953;SDS011;40855;51.072;5.402;2023-02-28T17:43:47;8.82;;;4.40;;
54953;SDS011;40855;51.072;5.402;2023-02-28T17:46:18;8.35;;;4.53;;
54953;SDS011;40855;51.072;5.402;2023-02-28T17:48:49;11.20;;;5.10;;
54953;SDS011;40855;51.072;5.402;2023-02-28T17:51:17;7.32;;;4.18;;
54953;SDS011;40855;51.072;5.402;2023-02-28T17:53:44;17.55;;;6.45;;
54953;SDS011;40855;51.072;5.402;2023-02-28T17:56:13;27.33;;;9.30;;
54953;SDS011;40855;51.072;5.402;2023-02-28T17:58:42;70.30;;;24.73;;
54953;SDS011;40855;51.072;5.402;2023-02-28T18:01:08;76.03;;;26.75;;